createdAt,value
2023-02-16T00:01:19.948Z,95876.03
2023-02-16T00:03:47.694Z,95869.81
2023-02-16T00:06:16.947Z,95867.31
2023-02-16T00:08:45.976Z,95868.63
2023-02-16T00:11:35.760Z,95866.25
2023-02-16T00:14:04.027Z,95856.38
2023-02-16T00:16:31.683Z,95861.44
2023-02-16T00:18:59.375Z,95855.78
2023-02-16T00:21:28.334Z,95845.06
2023-02-16T00:23:55.948Z,95840.69
2023-02-16T00:26:25.459Z,95837.19
2023-02-16T00:28:55.053Z,95832.69
2023-02-16T00:31:27.166Z,95822.63
2023-02-16T00:33:55.108Z,95820.09
2023-02-16T00:36:22.714Z,95820.94
2023-02-16T00:38:51.780Z,95816.75
2023-02-16T00:41:39.478Z,95818.56
2023-02-16T00:44:07.760Z,95813.53
2023-02-16T00:46:35.433Z,95822.41
2023-02-16T00:49:04.054Z,95819.91
2023-02-16T00:51:31.665Z,95830.75
2023-02-16T00:54:00.643Z,95831.06
2023-02-16T00:56:28.256Z,95834.25
2023-02-16T00:58:55.885Z,95840.28
2023-02-16T01:01:25.422Z,95835.94
2023-02-16T01:03:53.058Z,95836.91
2023-02-16T01:06:38.135Z,95838.25
2023-02-16T01:09:31.699Z,95840.91
2023-02-16T01:11:59.476Z,95837.56
2023-02-16T01:14:27.451Z,95843.38
2023-02-16T01:16:55.085Z,95850.53
2023-02-16T01:19:22.729Z,95842.84
2023-02-16T01:21:50.320Z,95845.16
2023-02-16T01:24:19.257Z,95830.38
2023-02-16T01:26:50.234Z,95830.38
2023-02-16T01:29:19.663Z,95823.91
2023-02-16T01:31:47.464Z,95820.06
2023-02-16T01:34:15.346Z,95834.59
2023-02-16T01:36:44.274Z,95825.03
2023-02-16T01:39:13.542Z,95833.38
2023-02-16T01:41:58.186Z,95835.06
2023-02-16T01:44:28.759Z,95836.72
2023-02-16T01:47:01.063Z,95842.25
2023-02-16T01:49:28.708Z,95837.06
2023-02-16T01:51:58.795Z,95830.00
2023-02-16T01:54:33.963Z,95824.97
2023-02-16T01:57:06.050Z,95823.31
2023-02-16T01:59:42.120Z,95827.56
2023-02-16T02:02:16.547Z,95825.19
2023-02-16T02:05:04.285Z,95817.75
2023-02-16T02:07:37.849Z,95815.91
2023-02-16T02:10:10.318Z,95819.41
2023-02-16T02:12:46.818Z,95815.91
2023-02-16T02:15:14.763Z,95812.22
2023-02-16T02:17:42.564Z,95814.88
2023-02-16T02:20:15.155Z,95805.06
2023-02-16T02:23:18.307Z,95808.56
2023-02-16T02:26:16.514Z,95806.56
2023-02-16T02:28:49.356Z,95808.25
2023-02-16T02:31:23.064Z,95810.94
2023-02-16T02:33:58.205Z,95811.91
2023-02-16T02:36:29.928Z,95813.75
2023-02-16T02:39:05.624Z,95815.75
2023-02-16T02:41:50.930Z,95823.91
2023-02-16T02:44:22.399Z,95813.84
2023-02-16T02:46:50.031Z,95814.28
2023-02-16T02:49:17.744Z,95805.06
2023-02-16T02:51:45.320Z,95805.50
2023-02-16T02:54:33.128Z,95804.00
2023-02-16T02:57:19.515Z,95801.31
2023-02-16T03:00:09.142Z,95798.81
2023-02-16T03:02:37.033Z,95801.31
2023-02-16T03:05:07.332Z,95797.66
2023-02-16T03:07:50.588Z,95799.34
2023-02-16T03:10:38.177Z,95794.13
2023-02-16T03:13:07.710Z,95794.00
2023-02-16T03:15:37.377Z,95791.00
2023-02-16T03:18:24.252Z,95795.50
2023-02-16T03:21:09.590Z,95795.34
2023-02-16T03:23:56.118Z,95790.34
2023-02-16T03:26:41.947Z,95794.13
2023-02-16T03:29:21.419Z,95796.81
2023-02-16T03:31:51.099Z,95803.84
2023-02-16T03:34:20.020Z,95814.38
2023-02-16T03:36:49.736Z,95813.66
2023-02-16T03:39:17.956Z,95812.84
2023-02-16T03:41:48.170Z,95814.84
2023-02-16T03:44:16.110Z,95821.97
2023-02-16T03:46:44.099Z,95822.47
2023-02-16T03:49:13.919Z,95822.63
2023-02-16T03:51:41.533Z,95816.03
2023-02-16T03:54:09.159Z,95820.53
2023-02-16T03:56:36.763Z,95825.34
2023-02-16T03:59:04.666Z,95821.69
2023-02-16T04:01:32.322Z,95829.00
2023-02-16T04:03:59.967Z,95828.16
2023-02-16T04:06:28.921Z,95829.28
2023-02-16T04:08:56.554Z,95824.81
2023-02-16T04:11:41.848Z,95823.13
2023-02-16T04:14:09.443Z,95823.41
2023-02-16T04:16:37.076Z,95824.44
2023-02-16T04:19:06.210Z,95828.75
2023-02-16T04:21:35.403Z,95825.25
2023-02-16T04:24:05.703Z,95828.91
2023-02-16T04:26:33.469Z,95831.44
2023-02-16T04:29:01.091Z,95829.78
2023-02-16T04:31:28.722Z,95831.03
2023-02-16T04:33:56.427Z,95830.06
2023-02-16T04:36:23.989Z,95821.03
2023-02-16T04:38:52.966Z,95825.41
2023-02-16T04:41:20.613Z,95828.22
2023-02-16T04:43:48.209Z,95828.22
2023-02-16T04:46:15.849Z,95826.56
2023-02-16T04:48:43.484Z,95824.72
2023-02-16T04:51:11.104Z,95821.22
2023-02-16T04:53:38.705Z,95816.72
2023-02-16T04:56:10.553Z,95818.38
2023-02-16T04:58:38.224Z,95822.75
2023-02-16T05:01:06.218Z,95825.41
2023-02-16T05:03:34.135Z,95829.06
2023-02-16T05:06:01.957Z,95827.41
2023-02-16T05:08:29.819Z,95824.03
2023-02-16T05:11:15.254Z,95831.03
2023-02-16T05:14:01.972Z,95828.38
2023-02-16T05:16:29.976Z,95826.38
2023-02-16T05:18:58.798Z,95830.38
2023-02-16T05:21:32.374Z,95824.19
2023-02-16T05:24:00.421Z,95829.69
2023-02-16T05:26:28.194Z,95830.66
2023-02-16T05:28:57.218Z,95829.00
2023-02-16T05:31:25.481Z,95827.69
2023-02-16T05:33:53.423Z,95832.44
2023-02-16T05:36:21.227Z,95833.81
2023-02-16T05:38:48.846Z,95838.56
2023-02-16T05:41:23.466Z,95842.44
2023-02-16T05:43:52.384Z,95842.28
2023-02-16T05:46:22.109Z,95845.66
2023-02-16T05:48:50.090Z,95852.25
2023-02-16T05:51:17.873Z,95850.25
2023-02-16T05:53:45.656Z,95848.25
2023-02-16T05:56:13.634Z,95857.81
2023-02-16T05:58:41.486Z,95859.81
2023-02-16T06:01:09.160Z,95864.44
2023-02-16T06:03:38.211Z,95867.97
2023-02-16T06:06:06.955Z,95867.97
2023-02-16T06:08:34.869Z,95863.47
2023-02-16T06:11:02.938Z,95874.16
2023-02-16T06:13:30.713Z,95864.28
2023-02-16T06:15:58.474Z,95867.81
2023-02-16T06:18:26.792Z,95878.34
2023-02-16T06:20:57.895Z,95887.59
2023-02-16T06:23:25.568Z,95876.91
2023-02-16T06:25:53.185Z,95882.53
2023-02-16T06:28:20.775Z,95888.03
2023-02-16T06:30:48.363Z,95891.53
2023-02-16T06:33:15.946Z,95887.22
2023-02-16T06:35:44.059Z,95888.88
2023-02-16T06:38:12.964Z,95887.50
2023-02-16T06:40:40.575Z,95889.63
2023-02-16T06:43:08.175Z,95886.81
2023-02-16T06:45:35.772Z,95890.19
2023-02-16T06:48:03.358Z,95896.88
2023-02-16T06:50:30.919Z,95892.09
2023-02-16T06:52:58.486Z,95887.28
2023-02-16T06:55:27.418Z,95897.50
2023-02-16T06:57:55.108Z,95898.75
2023-02-16T07:00:23.261Z,95897.44
2023-02-16T07:02:51.260Z,95896.84
2023-02-16T07:05:19.078Z,95905.09
2023-02-16T07:07:46.684Z,95913.19
2023-02-16T07:10:14.393Z,95902.72
2023-02-16T07:12:43.364Z,95897.75
2023-02-16T07:15:11.403Z,95905.19
2023-02-16T07:17:39.187Z,95911.44
2023-02-16T07:20:08.090Z,95906.44
2023-02-16T07:22:35.782Z,95912.84
2023-02-16T07:25:03.379Z,95909.41
2023-02-16T07:27:30.994Z,95910.31
2023-02-16T07:29:59.987Z,95908.50
2023-02-16T07:32:27.672Z,95915.78
2023-02-16T07:34:55.395Z,95914.13
2023-02-16T07:37:22.989Z,95917.69
2023-02-16T07:39:50.612Z,95930.31
2023-02-16T07:42:18.184Z,95921.34
2023-02-16T07:44:45.804Z,95918.69
2023-02-16T07:47:15.408Z,95921.75
2023-02-16T07:49:43.034Z,95930.28
2023-02-16T07:52:10.626Z,95929.63
2023-02-16T07:54:38.296Z,95932.34
2023-02-16T07:57:05.921Z,95926.44
2023-02-16T07:59:33.761Z,95930.81
2023-02-16T08:02:01.448Z,95936.41
2023-02-16T08:04:30.451Z,95941.63
2023-02-16T08:06:58.332Z,95947.69
2023-02-16T08:09:26.085Z,95944.00
2023-02-16T08:11:53.699Z,95942.34
2023-02-16T08:14:21.315Z,95943.03
2023-02-16T08:16:51.421Z,95942.69
2023-02-16T08:19:21.204Z,95947.34
2023-02-16T08:21:51.659Z,95948.00
2023-02-16T08:24:19.276Z,95949.00
2023-02-16T08:26:49.773Z,95947.25
2023-02-16T08:29:18.647Z,95945.03
2023-02-16T08:31:47.130Z,95949.84
2023-02-16T08:34:15.802Z,95949.28
2023-02-16T08:36:45.530Z,95941.31
2023-02-16T08:39:16.486Z,95938.91
2023-02-16T08:41:45.038Z,95948.28
2023-02-16T08:44:13.753Z,95946.97
2023-02-16T08:46:42.984Z,95948.38
2023-02-16T08:49:11.752Z,95941.00
2023-02-16T08:51:42.361Z,95943.75
2023-02-16T08:54:10.974Z,95941.81
2023-02-16T08:56:39.919Z,95945.25
2023-02-16T08:59:07.536Z,95945.47
2023-02-16T09:01:35.915Z,95942.31
2023-02-16T09:04:03.611Z,95948.75
2023-02-16T09:06:31.219Z,95943.81
2023-02-16T09:08:59.146Z,95947.41
2023-02-16T09:11:27.772Z,95944.88
2023-02-16T09:13:57.447Z,95943.47
2023-02-16T09:16:27.929Z,95934.53
2023-02-16T09:18:57.276Z,95937.25
2023-02-16T09:21:26.909Z,95937.78
2023-02-16T09:23:56.504Z,95938.50
2023-02-16T09:26:25.880Z,95940.06
2023-02-16T09:28:53.924Z,95952.88
2023-02-16T09:31:26.352Z,95940.09
2023-02-16T09:33:56.114Z,95946.22
2023-02-16T09:36:24.119Z,95941.16
2023-02-16T09:38:51.756Z,95939.38
2023-02-16T09:41:27.768Z,95949.47
2023-02-16T09:43:59.015Z,95943.53
2023-02-16T09:46:30.310Z,95941.97
2023-02-16T09:48:58.803Z,95941.16
2023-02-16T09:51:34.478Z,95937.66
2023-02-16T09:54:09.774Z,95946.44
2023-02-16T09:56:39.730Z,95944.59
2023-02-16T09:59:12.675Z,95938.13
2023-02-16T10:01:46.730Z,95936.50
2023-02-16T10:04:28.495Z,95942.34
2023-02-16T10:07:03.972Z,95932.72
2023-02-16T10:09:33.938Z,95933.56
2023-02-16T10:12:04.956Z,95936.53
2023-02-16T10:14:37.081Z,95935.84
2023-02-16T10:17:12.523Z,95931.44
2023-02-16T10:19:43.110Z,95934.06
2023-02-16T10:22:17.299Z,95932.31
2023-02-16T10:24:49.836Z,95938.69
2023-02-16T10:27:17.446Z,95933.00
2023-02-16T10:29:45.198Z,95941.00
2023-02-16T10:32:23.673Z,95929.38
2023-02-16T10:34:52.602Z,95927.81
2023-02-16T10:37:28.336Z,95929.31
2023-02-16T10:40:04.885Z,95938.13
2023-02-16T10:42:41.523Z,95936.09
2023-02-16T10:45:20.295Z,95929.00
2023-02-16T10:47:49.512Z,95929.31
2023-02-16T10:50:23.396Z,95924.13
2023-02-16T10:52:52.911Z,95924.91
2023-02-16T10:55:21.013Z,95921.91
2023-02-16T10:57:55.925Z,95920.97
2023-02-16T11:00:30.106Z,95920.28
2023-02-16T11:03:03.680Z,95929.59
2023-02-16T11:05:38.159Z,95926.66
2023-02-16T11:08:10.790Z,95927.06
2023-02-16T11:10:43.063Z,95916.94
2023-02-16T11:13:23.660Z,95912.78
2023-02-16T11:15:54.507Z,95910.94
2023-02-16T11:18:30.783Z,95906.13
2023-02-16T11:20:59.466Z,95896.03
2023-02-16T11:23:28.957Z,95897.72
2023-02-16T11:25:58.824Z,95905.56
2023-02-16T11:28:32.767Z,95906.56
2023-02-16T11:31:12.857Z,95901.03
2023-02-16T11:33:43.071Z,95905.41
2023-02-16T11:36:32.703Z,95895.31
2023-02-16T11:39:03.229Z,95898.19
2023-02-16T11:41:33.391Z,95887.00
2023-02-16T11:44:02.003Z,95889.75
2023-02-16T11:46:30.728Z,95884.13
2023-02-16T11:49:28.256Z,95875.34
2023-02-16T11:51:55.906Z,95872.63
2023-02-16T11:54:41.480Z,95874.25
2023-02-16T11:57:11.025Z,95859.03
2023-02-16T11:59:40.386Z,95861.53
2023-02-16T12:02:42.323Z,95858.75
2023-02-16T12:05:26.100Z,95848.09
2023-02-16T12:08:07.464Z,95841.56
2023-02-16T12:10:40.090Z,95837.78
2023-02-16T12:13:14.160Z,95832.34
2023-02-16T12:15:46.881Z,95837.78
2023-02-16T12:18:27.897Z,95831.22
2023-02-16T12:21:00.866Z,95836.13
2023-02-16T12:23:39.242Z,95826.50
2023-02-16T12:26:21.472Z,95831.59
2023-02-16T12:28:53.708Z,95823.63
2023-02-16T12:31:28.761Z,95822.47
2023-02-16T12:34:03.840Z,95809.25
2023-02-16T12:36:40.772Z,95816.00
2023-02-16T12:39:18.334Z,95815.16
2023-02-16T12:41:55.134Z,95806.97
2023-02-16T12:44:29.520Z,95815.75
2023-02-16T12:47:02.857Z,95807.38
2023-02-16T12:49:34.499Z,95800.47
2023-02-16T12:52:07.458Z,95802.56
2023-02-16T12:54:39.421Z,95798.31
2023-02-16T12:57:10.784Z,95797.66
2023-02-16T12:59:40.708Z,95795.50
2023-02-16T13:02:14.448Z,95793.84
2023-02-16T13:04:45.708Z,95791.19
2023-02-16T13:07:18.214Z,95788.19
2023-02-16T13:09:53.464Z,95784.84
2023-02-16T13:12:28.682Z,95779.03
2023-02-16T13:15:04.340Z,95776.75
2023-02-16T13:17:34.419Z,95771.31
2023-02-16T13:20:03.526Z,95770.28
2023-02-16T13:22:45.064Z,95768.78
2023-02-16T13:25:49.165Z,95770.41
2023-02-16T13:28:34.060Z,95779.97
2023-02-16T13:31:12.493Z,95764.75
2023-02-16T13:33:57.340Z,95769.53
2023-02-16T13:36:35.985Z,95765.34
2023-02-16T13:39:26.419Z,95768.41
2023-02-16T13:42:22.766Z,95765.72
2023-02-16T13:44:52.857Z,95767.56
2023-02-16T13:47:24.744Z,95765.16
2023-02-16T13:49:58.581Z,95765.53
2023-02-16T13:52:33.463Z,95761.59
2023-02-16T13:55:04.417Z,95765.41
2023-02-16T13:58:04.632Z,95762.34
2023-02-16T14:00:35.524Z,95751.25
2023-02-16T14:03:05.894Z,95751.56
2023-02-16T14:05:35.838Z,95752.88
2023-02-16T14:08:16.254Z,95747.59
2023-02-16T14:11:08.604Z,95747.22
2023-02-16T14:13:46.637Z,95753.88
2023-02-16T14:16:29.089Z,95754.13
2023-02-16T14:18:58.761Z,95749.25
2023-02-16T14:21:32.382Z,95747.81
2023-02-16T14:24:01.321Z,95743.91
2023-02-16T14:26:31.157Z,95738.03
2023-02-16T14:29:12.549Z,95743.28
2023-02-16T14:31:44.984Z,95738.63
2023-02-16T14:34:18.000Z,95740.59
2023-02-16T14:37:11.987Z,95736.91
2023-02-16T14:40:03.997Z,95736.97
2023-02-16T14:42:31.961Z,95744.97
2023-02-16T14:45:12.040Z,95743.72
2023-02-16T14:47:48.838Z,95740.16
2023-02-16T14:50:31.833Z,95742.41
2023-02-16T14:53:21.629Z,95740.06
2023-02-16T14:56:18.358Z,95741.53
2023-02-16T14:58:53.155Z,95739.38
2023-02-16T15:01:21.263Z,95734.69
2023-02-16T15:03:50.802Z,95737.34
2023-02-16T15:06:31.108Z,95733.34
2023-02-16T15:09:00.819Z,95739.19
2023-02-16T15:11:34.228Z,95737.66
2023-02-16T15:14:09.421Z,95732.38
2023-02-16T15:16:40.430Z,95740.44
2023-02-16T15:19:12.214Z,95741.44
2023-02-16T15:21:40.189Z,95732.66
2023-02-16T15:24:22.291Z,95728.25
2023-02-16T15:26:55.969Z,95728.84
2023-02-16T15:29:27.457Z,95727.69
2023-02-16T15:31:55.901Z,95732.44
2023-02-16T15:34:30.599Z,95727.63
2023-02-16T15:36:58.155Z,95727.75
2023-02-16T15:39:42.633Z,95730.03
2023-02-16T15:42:21.561Z,95743.72
2023-02-16T15:44:50.749Z,95733.50
2023-02-16T15:47:23.274Z,95737.00
2023-02-16T15:49:51.221Z,95739.75
2023-02-16T15:52:21.567Z,95749.69
2023-02-16T15:54:49.565Z,95739.03
2023-02-16T15:57:21.235Z,95748.78
2023-02-16T15:59:52.952Z,95742.13
2023-02-16T16:02:21.791Z,95749.03
2023-02-16T16:04:54.990Z,95756.47
2023-02-16T16:07:27.636Z,95751.50
2023-02-16T16:09:56.586Z,95749.69
2023-02-16T16:12:24.728Z,95752.25
2023-02-16T16:14:56.270Z,95750.22
2023-02-16T16:17:28.074Z,95747.69
2023-02-16T16:19:56.426Z,95751.06
2023-02-16T16:22:35.079Z,95753.28
2023-02-16T16:25:04.294Z,95753.25
2023-02-16T16:27:33.605Z,95747.50
2023-02-16T16:30:18.777Z,95760.50
2023-02-16T16:32:46.852Z,95755.13
2023-02-16T16:35:22.755Z,95761.97
2023-02-16T16:37:53.410Z,95760.59
2023-02-16T16:40:23.499Z,95763.41
2023-02-16T16:43:09.027Z,95768.56
2023-02-16T16:45:40.687Z,95768.63
2023-02-16T16:48:10.501Z,95763.25
2023-02-16T16:50:39.829Z,95760.78
2023-02-16T16:53:51.859Z,95762.75
2023-02-16T16:56:20.052Z,95764.09
2023-02-16T16:58:50.224Z,95756.03
2023-02-16T17:01:20.381Z,95759.91
2023-02-16T17:03:48.084Z,95770.84
2023-02-16T17:06:15.706Z,95768.78
2023-02-16T17:08:43.288Z,95763.78
2023-02-16T17:11:13.768Z,95767.16
2023-02-16T17:13:41.417Z,95769.09
2023-02-16T17:16:12.341Z,95772.69
2023-02-16T17:18:41.274Z,95770.69
2023-02-16T17:21:11.699Z,95776.41
2023-02-16T17:23:45.228Z,95770.78
2023-02-16T17:26:18.051Z,95779.38
2023-02-16T17:28:45.649Z,95778.34
2023-02-16T17:31:13.279Z,95777.75
2023-02-16T17:33:43.401Z,95782.34
2023-02-16T17:36:15.100Z,95781.75
2023-02-16T17:38:42.932Z,95783.81
2023-02-16T17:41:18.424Z,95783.44
2023-02-16T17:43:46.020Z,95784.72
2023-02-16T17:46:14.714Z,95785.97
2023-02-16T17:48:43.811Z,95786.59
2023-02-16T17:51:14.908Z,95790.78
2023-02-16T17:53:42.482Z,95782.84
2023-02-16T17:56:11.944Z,95787.25
2023-02-16T17:58:40.149Z,95784.75
2023-02-16T18:01:08.252Z,95782.25
2023-02-16T18:03:35.812Z,95788.09
2023-02-16T18:06:05.258Z,95786.47
2023-02-16T18:08:33.076Z,95792.75
2023-02-16T18:11:02.794Z,95781.25
2023-02-16T18:13:30.465Z,95782.31
2023-02-16T18:15:58.746Z,95780.63
2023-02-16T18:18:26.355Z,95774.16
2023-02-16T18:20:54.419Z,95782.31
2023-02-16T18:23:23.323Z,95767.66
2023-02-16T18:25:50.893Z,95786.50
2023-02-16T18:28:21.103Z,95785.25
2023-02-16T18:30:49.304Z,95786.31
2023-02-16T18:33:17.143Z,95785.69
2023-02-16T18:35:44.870Z,95793.00
2023-02-16T18:38:12.445Z,95795.53
2023-02-16T18:40:42.522Z,95790.28
2023-02-16T18:43:11.429Z,95796.13
2023-02-16T18:45:39.390Z,95795.31
2023-02-16T18:48:07.219Z,95789.03
2023-02-16T18:50:35.135Z,95779.84
2023-02-16T18:53:02.704Z,95793.00
2023-02-16T18:55:33.017Z,95801.13
2023-02-16T18:58:02.990Z,95795.69
2023-02-16T19:00:30.884Z,95802.16
2023-02-16T19:02:58.588Z,95792.81
2023-02-16T19:05:26.354Z,95797.38
2023-02-16T19:07:53.882Z,95790.09
2023-02-16T19:10:21.632Z,95791.53
2023-02-16T19:12:49.194Z,95793.19
2023-02-16T19:15:18.315Z,95803.22
2023-02-16T19:17:45.860Z,95804.28
2023-02-16T19:20:18.039Z,95807.00
2023-02-16T19:22:45.619Z,95795.72
2023-02-16T19:25:13.220Z,95803.66
2023-02-16T19:27:40.775Z,95805.72
2023-02-16T19:30:09.211Z,95808.44
2023-02-16T19:32:39.351Z,95805.72
2023-02-16T19:35:07.309Z,95795.09
2023-02-16T19:37:35.158Z,95801.78
2023-02-16T19:40:02.800Z,95805.56
2023-02-16T19:42:30.390Z,95808.47
2023-02-16T19:44:57.916Z,95802.00
2023-02-16T19:47:25.530Z,95802.84
2023-02-16T19:49:54.568Z,95812.03
2023-02-16T19:52:22.211Z,95808.25
2023-02-16T19:54:49.839Z,95806.81
2023-02-16T19:57:17.428Z,95807.88
2023-02-16T19:59:45.123Z,95815.41
2023-02-16T20:02:14.750Z,95814.56
2023-02-16T20:04:42.372Z,95811.22
2023-02-16T20:07:11.369Z,95813.94
2023-02-16T20:09:39.067Z,95813.94
2023-02-16T20:12:07.303Z,95810.38
2023-02-16T20:14:34.959Z,95815.41
2023-02-16T20:17:02.556Z,95817.50
2023-02-16T20:19:30.188Z,95817.94
2023-02-16T20:21:57.757Z,95817.31
2023-02-16T20:24:26.705Z,95820.03
2023-02-16T20:26:54.349Z,95815.84
2023-02-16T20:29:22.084Z,95816.69
2023-02-16T20:31:51.768Z,95817.75
2023-02-16T20:34:19.526Z,95809.59
2023-02-16T20:36:47.109Z,95821.50
2023-02-16T20:39:15.086Z,95819.19
2023-02-16T20:41:44.333Z,95816.47
2023-02-16T20:44:12.644Z,95810.22
2023-02-16T20:46:41.692Z,95807.69
2023-02-16T20:49:10.116Z,95807.91
2023-02-16T20:51:38.548Z,95809.59
2023-02-16T20:54:06.719Z,95806.00
2023-02-16T20:56:34.507Z,95806.66
2023-02-16T20:59:03.755Z,95804.81
2023-02-16T21:01:37.083Z,95807.31
2023-02-16T21:04:05.758Z,95798.94
2023-02-16T21:06:34.055Z,95798.94
2023-02-16T21:09:02.063Z,95796.44
2023-02-16T21:11:29.724Z,95799.78
2023-02-16T21:13:58.233Z,95796.84
2023-02-16T21:16:27.288Z,95798.75
2023-02-16T21:18:54.983Z,95797.88
2023-02-16T21:21:23.924Z,95791.63
2023-02-16T21:23:52.690Z,95793.53
2023-02-16T21:26:25.864Z,95793.31
2023-02-16T21:28:54.299Z,95788.09
2023-02-16T21:31:24.558Z,95796.25
2023-02-16T21:33:53.843Z,95790.59
2023-02-16T21:36:23.054Z,95797.06
2023-02-16T21:38:50.955Z,95788.09
2023-02-16T21:41:25.149Z,95791.44
2023-02-16T21:43:58.526Z,95785.78
2023-02-16T21:46:26.641Z,95791.22
2023-02-16T21:48:55.196Z,95789.13
2023-02-16T21:51:25.084Z,95777.44
2023-02-16T21:53:53.271Z,95791.41
2023-02-16T21:56:38.984Z,95779.94
2023-02-16T21:59:08.732Z,95782.22
2023-02-16T22:01:37.969Z,95781.16
2023-02-16T22:04:07.360Z,95781.16
2023-02-16T22:06:37.339Z,95782.84
2023-02-16T22:09:07.266Z,95777.41
2023-02-16T22:11:34.844Z,95775.34
2023-02-16T22:14:03.004Z,95773.88
2023-02-16T22:16:31.782Z,95769.47
2023-02-16T22:19:00.389Z,95770.94
2023-02-16T22:21:30.072Z,95774.91
2023-02-16T22:24:00.695Z,95775.72
2023-02-16T22:26:30.518Z,95771.38
2023-02-16T22:28:58.332Z,95772.81
2023-02-16T22:31:27.667Z,95772.81
2023-02-16T22:33:56.930Z,95769.50
2023-02-16T22:36:24.906Z,95774.94
2023-02-16T22:38:54.555Z,95774.09
2023-02-16T22:41:22.744Z,95774.94
2023-02-16T22:43:53.163Z,95772.22
2023-02-16T22:46:21.264Z,95770.53
2023-02-16T22:48:48.957Z,95759.69
2023-02-16T22:51:17.866Z,95763.25
2023-02-16T22:53:45.521Z,95761.78
2023-02-16T22:56:16.251Z,95762.84
2023-02-16T22:58:44.242Z,95775.78
2023-02-16T23:01:13.146Z,95762.84
2023-02-16T23:03:40.986Z,95761.16
2023-02-16T23:06:13.611Z,95769.09
2023-02-16T23:08:41.217Z,95762.84
2023-02-16T23:11:08.829Z,95759.88
2023-02-16T23:13:38.124Z,95757.19
2023-02-16T23:16:06.905Z,95755.09
2023-02-16T23:18:34.896Z,95763.66
2023-02-16T23:21:06.999Z,95764.69
2023-02-16T23:23:34.642Z,95767.81
2023-02-16T23:26:02.343Z,95762.59
2023-02-16T23:28:29.979Z,95764.50
2023-02-16T23:30:59.051Z,95767.63
2023-02-16T23:33:26.837Z,95773.44
2023-02-16T23:35:55.852Z,95771.81
2023-02-16T23:38:23.744Z,95767.41
2023-02-16T23:40:56.631Z,95755.13
2023-02-16T23:43:24.396Z,95748.22
2023-02-16T23:45:52.077Z,95762.00
2023-02-16T23:48:21.352Z,95755.75
2023-02-16T23:50:48.963Z,95763.88
2023-02-16T23:53:16.550Z,95758.88
2023-02-16T23:55:44.179Z,95760.78
2023-02-16T23:58:11.803Z,95761.81
